CAL195 RJFT-RCTP
Flight info
| Callsign | CAL195 |
|---|---|
| Flight time | 2h 10m |
| Altitude | 34000 |
| Route | MIFNE HKC A1 DRAKE DRAKE1A |
| Aircraft | A21N/M-SDE2E3FGHIRWXY/LB1 |
Departure
| Time | 2026-04-25 09:16 |
|---|---|
| Airport | Kumamoto Airport (RJFT) |
Arrival
| Time | 2026-04-25 11:27 |
|---|---|
| Airport | Taiwan Taoyuan International Airport (RCTP) |
| Time | Latitude | Longitude | Altitude | Speed | Heading |
|---|---|---|---|---|---|
| 2026-04-25 09:08 | 32.83653 | 130.85764 | 652 ft | 0 kts | 244° |
| 2026-04-25 09:09 | 32.83652 | 130.85764 | 652 ft | 1 kts | 244° |
| 2026-04-25 09:09 | 32.83643 | 130.85741 | 652 ft | 5 kts | 244° |
| 2026-04-25 09:09 | 32.83627 | 130.85700 | 650 ft | 6 kts | 245° |
| 2026-04-25 09:09 | 32.83606 | 130.85648 | 649 ft | 8 kts | 245° |
| 2026-04-25 09:10 | 32.83579 | 130.85580 | 648 ft | 10 kts | 245° |
| 2026-04-25 09:10 | 32.83545 | 130.85496 | 648 ft | 12 kts | 244° |
| 2026-04-25 09:10 | 32.83504 | 130.85396 | 647 ft | 14 kts | 244° |
| 2026-04-25 09:10 | 32.83464 | 130.85296 | 644 ft | 10 kts | 244° |
| 2026-04-25 09:11 | 32.83456 | 130.85276 | 643 ft | 0 kts | 244° |
| 2026-04-25 09:11 | 32.83453 | 130.85267 | 645 ft | 2 kts | 244° |
| 2026-04-25 09:11 | 32.83444 | 130.85246 | 642 ft | 4 kts | 244° |
| 2026-04-25 09:12 | 32.83429 | 130.85207 | 642 ft | 7 kts | 245° |
| 2026-04-25 09:12 | 32.83406 | 130.85149 | 641 ft | 9 kts | 244° |
| 2026-04-25 09:12 | 32.83381 | 130.85082 | 641 ft | 9 kts | 242° |
| 2026-04-25 09:12 | 32.83352 | 130.85016 | 645 ft | 10 kts | 245° |
| 2026-04-25 09:13 | 32.83321 | 130.84937 | 637 ft | 11 kts | 245° |
| 2026-04-25 09:13 | 32.83283 | 130.84844 | 634 ft | 14 kts | 244° |
| 2026-04-25 09:13 | 32.83238 | 130.84732 | 629 ft | 16 kts | 244° |
| 2026-04-25 09:13 | 32.83190 | 130.84610 | 631 ft | 17 kts | 244° |
| 2026-04-25 09:14 | 32.83137 | 130.84478 | 629 ft | 19 kts | 244° |
| 2026-04-25 09:14 | 32.83079 | 130.84336 | 623 ft | 20 kts | 244° |
| 2026-04-25 09:14 | 32.83026 | 130.84182 | 619 ft | 21 kts | 294° |
| 2026-04-25 09:14 | 32.83137 | 130.84084 | 621 ft | 23 kts | 24° |
| 2026-04-25 09:15 | 32.83177 | 130.84124 | 617 ft | 7 kts | 52° |
| 2026-04-25 09:15 | 32.83188 | 130.84150 | 626 ft | 3 kts | 57° |
| 2026-04-25 09:15 | 32.83191 | 130.84160 | 625 ft | 0 kts | 70° |
| 2026-04-25 09:15 | 32.83202 | 130.84189 | 623 ft | 10 kts | 64° |
| 2026-04-25 09:16 | 32.83336 | 130.84520 | 628 ft | 82 kts | 64° |
| 2026-04-25 09:16 | 32.83675 | 130.85361 | 648 ft | 141 kts | 64° |
| 2026-04-25 09:16 | 32.84136 | 130.86468 | 1109 ft | 143 kts | 66° |
| 2026-04-25 09:16 | 32.84620 | 130.87560 | 1428 ft | 158 kts | 52° |
| 2026-04-25 09:17 | 32.86697 | 130.87695 | 2436 ft | 181 kts | 315° |
| 2026-04-25 09:17 | 32.87487 | 130.86380 | 2877 ft | 200 kts | 303° |
| 2026-04-25 09:17 | 32.88243 | 130.84921 | 3453 ft | 219 kts | 301° |
| 2026-04-25 09:18 | 32.89113 | 130.83344 | 3932 ft | 246 kts | 304° |
| 2026-04-25 09:18 | 32.90007 | 130.81501 | 4501 ft | 267 kts | 290° |
| 2026-04-25 09:18 | 32.90256 | 130.79295 | 5335 ft | 274 kts | 262° |
| 2026-04-25 09:18 | 32.89678 | 130.77152 | 6334 ft | 275 kts | 242° |
| 2026-04-25 09:19 | 32.88531 | 130.75333 | 7290 ft | 275 kts | 220° |
| 2026-04-25 09:19 | 32.86900 | 130.74181 | 8247 ft | 275 kts | 198° |
| 2026-04-25 09:19 | 32.85017 | 130.73877 | 9171 ft | 278 kts | 178° |
| 2026-04-25 09:19 | 32.83068 | 130.74084 | 10097 ft | 283 kts | 175° |
| 2026-04-25 09:20 | 32.81046 | 130.74340 | 10553 ft | 304 kts | 175° |
| 2026-04-25 09:20 | 32.78858 | 130.74590 | 10879 ft | 326 kts | 176° |
| 2026-04-25 09:20 | 32.76539 | 130.74833 | 11175 ft | 348 kts | 176° |
| 2026-04-25 09:20 | 32.74044 | 130.75082 | 11462 ft | 369 kts | 176° |
| 2026-04-25 09:21 | 32.71423 | 130.75335 | 11733 ft | 388 kts | 176° |
| 2026-04-25 09:21 | 32.68695 | 130.75594 | 12201 ft | 397 kts | 176° |
| 2026-04-25 09:21 | 32.65924 | 130.75855 | 12803 ft | 401 kts | 177° |
| 2026-04-25 09:21 | 32.63130 | 130.75892 | 13473 ft | 403 kts | 186° |
| 2026-04-25 09:22 | 32.60340 | 130.75454 | 14107 ft | 406 kts | 191° |
| 2026-04-25 09:22 | 32.58490 | 130.75098 | 14483 ft | 408 kts | 191° |
| 2026-04-25 09:22 | 32.54733 | 130.74359 | 15352 ft | 412 kts | 191° |
| 2026-04-25 09:22 | 32.51904 | 130.73811 | 16037 ft | 415 kts | 191° |
| 2026-04-25 09:23 | 32.49026 | 130.73261 | 16698 ft | 419 kts | 191° |
| 2026-04-25 09:23 | 32.46137 | 130.72711 | 17367 ft | 421 kts | 192° |
| 2026-04-25 09:23 | 32.43237 | 130.72157 | 18043 ft | 424 kts | 192° |
| 2026-04-25 09:23 | 32.40311 | 130.71604 | 18664 ft | 427 kts | 192° |
| 2026-04-25 09:24 | 32.37375 | 130.71043 | 19232 ft | 429 kts | 192° |
| 2026-04-25 09:24 | 32.34412 | 130.70478 | 19801 ft | 432 kts | 193° |
| 2026-04-25 09:24 | 32.31438 | 130.69911 | 20339 ft | 434 kts | 193° |
| 2026-04-25 09:24 | 32.28444 | 130.69343 | 20878 ft | 437 kts | 193° |
| 2026-04-25 09:25 | 32.25439 | 130.68772 | 21460 ft | 439 kts | 193° |
| 2026-04-25 09:25 | 32.22454 | 130.68207 | 22032 ft | 442 kts | 193° |
| 2026-04-25 09:25 | 32.19379 | 130.67628 | 22577 ft | 444 kts | 193° |
| 2026-04-25 09:25 | 32.16346 | 130.67055 | 23089 ft | 448 kts | 193° |
| 2026-04-25 09:26 | 32.13279 | 130.66476 | 23579 ft | 451 kts | 193° |
| 2026-04-25 09:26 | 32.10197 | 130.65893 | 24004 ft | 453 kts | 194° |
| 2026-04-25 09:26 | 32.07070 | 130.65303 | 24449 ft | 454 kts | 194° |
| 2026-04-25 09:26 | 32.03924 | 130.64710 | 24906 ft | 454 kts | 195° |
| 2026-04-25 09:27 | 32.01860 | 130.64322 | 25335 ft | 451 kts | 195° |
| 2026-04-25 09:27 | 31.98792 | 130.63745 | 25961 ft | 446 kts | 195° |
| 2026-04-25 09:27 | 31.94730 | 130.62983 | 26792 ft | 438 kts | 196° |
| 2026-04-25 09:27 | 31.92749 | 130.62614 | 27195 ft | 435 kts | 197° |
| 2026-04-25 09:28 | 31.89909 | 130.62085 | 27796 ft | 430 kts | 197° |
| 2026-04-25 09:28 | 31.86978 | 130.61537 | 28369 ft | 424 kts | 198° |
| 2026-04-25 09:28 | 31.84074 | 130.60988 | 28923 ft | 420 kts | 198° |
| 2026-04-25 09:28 | 31.81206 | 130.60447 | 29455 ft | 415 kts | 199° |
| 2026-04-25 09:29 | 31.78365 | 130.59913 | 30018 ft | 411 kts | 199° |
| 2026-04-25 09:29 | 31.75562 | 130.59375 | 30462 ft | 406 kts | 200° |
| 2026-04-25 09:29 | 31.72867 | 130.58543 | 30835 ft | 393 kts | 208° |
| 2026-04-25 09:29 | 31.70428 | 130.57230 | 31127 ft | 382 kts | 217° |
| 2026-04-25 09:30 | 31.67634 | 130.54818 | 31579 ft | 372 kts | 227° |
| 2026-04-25 09:30 | 31.66432 | 130.53351 | 31793 ft | 369 kts | 232° |
| 2026-04-25 09:30 | 31.64920 | 130.51114 | 32095 ft | 368 kts | 234° |
| 2026-04-25 09:30 | 31.63373 | 130.48727 | 32404 ft | 367 kts | 234° |
| 2026-04-25 09:31 | 31.61832 | 130.46359 | 32750 ft | 365 kts | 234° |
| 2026-04-25 09:31 | 31.60291 | 130.44015 | 33071 ft | 364 kts | 234° |
| 2026-04-25 09:31 | 31.58746 | 130.41669 | 33386 ft | 362 kts | 234° |
| 2026-04-25 09:31 | 31.57214 | 130.39345 | 33699 ft | 361 kts | 234° |
| 2026-04-25 09:32 | 31.55671 | 130.37008 | 33993 ft | 360 kts | 234° |
| 2026-04-25 09:32 | 31.54141 | 130.34698 | 34097 ft | 358 kts | 234° |
| 2026-04-25 09:32 | 31.52615 | 130.32392 | 34098 ft | 357 kts | 234° |
| 2026-04-25 09:33 | 31.49565 | 130.27790 | 34080 ft | 357 kts | 234° |
| 2026-04-25 09:33 | 31.46519 | 130.23197 | 34091 ft | 356 kts | 234° |
| 2026-04-25 09:34 | 31.43478 | 130.18635 | 34064 ft | 356 kts | 234° |
| 2026-04-25 09:34 | 31.40430 | 130.14051 | 34007 ft | 358 kts | 234° |
| 2026-04-25 09:35 | 31.37381 | 130.09460 | 34044 ft | 357 kts | 234° |
| 2026-04-25 09:35 | 31.34359 | 130.04848 | 34070 ft | 357 kts | 234° |
| 2026-04-25 09:36 | 31.31329 | 130.00248 | 34080 ft | 355 kts | 234° |
| 2026-04-25 09:36 | 31.28324 | 129.95692 | 34038 ft | 359 kts | 234° |
| 2026-04-25 09:37 | 31.25232 | 129.91051 | 34057 ft | 360 kts | 234° |
| 2026-04-25 09:37 | 31.22146 | 129.86432 | 34057 ft | 360 kts | 234° |
| 2026-04-25 09:38 | 31.19061 | 129.81823 | 34064 ft | 360 kts | 234° |
| 2026-04-25 09:38 | 31.15980 | 129.77235 | 34074 ft | 358 kts | 234° |
| 2026-04-25 09:39 | 31.12919 | 129.72668 | 34058 ft | 360 kts | 234° |
| 2026-04-25 09:39 | 31.09833 | 129.68062 | 34054 ft | 360 kts | 234° |
| 2026-04-25 09:40 | 31.05197 | 129.61156 | 34064 ft | 361 kts | 234° |
| 2026-04-25 09:40 | 31.02103 | 129.56559 | 34082 ft | 359 kts | 234° |
| 2026-04-25 09:41 | 30.99006 | 129.51961 | 34052 ft | 362 kts | 233° |
| 2026-04-25 09:41 | 30.95887 | 129.47342 | 34059 ft | 362 kts | 233° |
| 2026-04-25 09:42 | 30.92773 | 129.42724 | 34056 ft | 363 kts | 233° |
| 2026-04-25 09:42 | 30.89657 | 129.38113 | 34055 ft | 363 kts | 233° |
| 2026-04-25 09:43 | 30.86528 | 129.33488 | 34061 ft | 363 kts | 233° |
| 2026-04-25 09:43 | 30.83394 | 129.28866 | 34060 ft | 364 kts | 233° |
| 2026-04-25 09:44 | 30.80256 | 129.24240 | 34057 ft | 364 kts | 233° |
| 2026-04-25 09:44 | 30.77158 | 129.19661 | 34055 ft | 363 kts | 234° |
| 2026-04-25 09:45 | 30.74062 | 129.14942 | 34056 ft | 363 kts | 234° |
| 2026-04-25 09:45 | 30.71008 | 129.10295 | 34057 ft | 365 kts | 234° |
| 2026-04-25 09:46 | 30.67913 | 129.05584 | 34056 ft | 365 kts | 234° |
| 2026-04-25 09:46 | 30.64833 | 129.00905 | 34056 ft | 365 kts | 234° |
| 2026-04-25 09:47 | 30.62047 | 128.96678 | 34053 ft | 365 kts | 234° |
| 2026-04-25 09:47 | 30.61242 | 128.95459 | 34053 ft | 365 kts | 234° |
| 2026-04-25 09:48 | 30.58145 | 128.90769 | 34028 ft | 366 kts | 234° |
| 2026-04-25 09:48 | 30.55039 | 128.86087 | 34065 ft | 366 kts | 234° |
| 2026-04-25 09:49 | 30.51935 | 128.81399 | 34053 ft | 366 kts | 234° |
| 2026-04-25 09:49 | 30.48836 | 128.76713 | 34051 ft | 366 kts | 234° |
| 2026-04-25 09:50 | 30.45735 | 128.72026 | 34054 ft | 366 kts | 234° |
| 2026-04-25 09:50 | 30.42622 | 128.67332 | 34044 ft | 368 kts | 233° |
| 2026-04-25 09:51 | 30.39505 | 128.62647 | 34068 ft | 366 kts | 234° |
| 2026-04-25 09:51 | 30.36396 | 128.57976 | 34056 ft | 366 kts | 234° |
| 2026-04-25 09:52 | 30.33283 | 128.53304 | 34048 ft | 366 kts | 234° |
| 2026-04-25 09:52 | 30.30172 | 128.48633 | 34011 ft | 366 kts | 234° |
| 2026-04-25 09:53 | 30.27052 | 128.43960 | 34038 ft | 368 kts | 233° |
| 2026-04-25 09:53 | 30.23923 | 128.39279 | 34044 ft | 368 kts | 233° |
| 2026-04-25 09:54 | 30.20787 | 128.34600 | 34048 ft | 368 kts | 233° |
| 2026-04-25 09:54 | 30.17652 | 128.29926 | 34045 ft | 368 kts | 233° |
| 2026-04-25 09:55 | 30.14510 | 128.25258 | 34044 ft | 368 kts | 233° |
| 2026-04-25 09:55 | 30.11369 | 128.20592 | 34045 ft | 368 kts | 233° |
| 2026-04-25 09:56 | 30.08242 | 128.15925 | 34056 ft | 366 kts | 234° |
| 2026-04-25 09:56 | 30.05136 | 128.11305 | 34048 ft | 367 kts | 233° |
| 2026-04-25 09:57 | 30.01977 | 128.06632 | 34046 ft | 367 kts | 233° |
| 2026-04-25 09:57 | 29.98838 | 128.01980 | 34030 ft | 368 kts | 233° |
| 2026-04-25 09:58 | 29.95712 | 127.97338 | 34045 ft | 369 kts | 233° |
| 2026-04-25 09:58 | 29.92540 | 127.92651 | 34059 ft | 367 kts | 233° |
| 2026-04-25 09:59 | 29.89421 | 127.88035 | 34049 ft | 367 kts | 233° |
| 2026-04-25 09:59 | 29.86257 | 127.83413 | 34047 ft | 368 kts | 232° |
| 2026-04-25 10:00 | 29.82934 | 127.78925 | 34035 ft | 369 kts | 231° |
| 2026-04-25 10:00 | 29.79576 | 127.74429 | 34046 ft | 370 kts | 231° |
| 2026-04-25 10:01 | 29.76225 | 127.69944 | 34065 ft | 368 kts | 231° |
| 2026-04-25 10:01 | 29.72897 | 127.65469 | 34050 ft | 368 kts | 231° |
| 2026-04-25 10:02 | 29.69572 | 127.61009 | 34003 ft | 368 kts | 231° |
| 2026-04-25 10:02 | 29.66211 | 127.56516 | 34037 ft | 371 kts | 231° |
| 2026-04-25 10:03 | 29.62843 | 127.52014 | 34043 ft | 371 kts | 231° |
| 2026-04-25 10:03 | 29.59474 | 127.47520 | 34073 ft | 371 kts | 231° |
| 2026-04-25 10:04 | 29.56263 | 127.42955 | 34057 ft | 367 kts | 233° |
| 2026-04-25 10:04 | 29.53137 | 127.38420 | 34030 ft | 368 kts | 233° |
| 2026-04-25 10:05 | 29.49905 | 127.33742 | 34047 ft | 370 kts | 233° |
| 2026-04-25 10:05 | 29.46707 | 127.29122 | 34054 ft | 370 kts | 233° |
| 2026-04-25 10:06 | 29.43505 | 127.24502 | 34055 ft | 370 kts | 233° |
| 2026-04-25 10:06 | 29.40324 | 127.19911 | 34066 ft | 366 kts | 233° |
| 2026-04-25 10:07 | 29.37142 | 127.15339 | 34019 ft | 370 kts | 233° |
| 2026-04-25 10:07 | 29.33922 | 127.10716 | 34040 ft | 372 kts | 233° |
| 2026-04-25 10:08 | 29.30723 | 127.06107 | 34050 ft | 372 kts | 233° |
| 2026-04-25 10:08 | 29.27499 | 127.01472 | 34054 ft | 372 kts | 233° |
| 2026-04-25 10:09 | 29.24280 | 126.96856 | 34071 ft | 367 kts | 233° |
| 2026-04-25 10:09 | 29.21085 | 126.92288 | 34035 ft | 371 kts | 233° |
| 2026-04-25 10:10 | 29.17857 | 126.87672 | 34054 ft | 372 kts | 233° |
| 2026-04-25 10:10 | 29.14631 | 126.83053 | 34055 ft | 372 kts | 233° |
| 2026-04-25 10:11 | 29.11399 | 126.78437 | 34058 ft | 372 kts | 233° |
| 2026-04-25 10:11 | 29.08168 | 126.73824 | 34080 ft | 370 kts | 233° |
| 2026-04-25 10:12 | 29.05479 | 126.70008 | 34019 ft | 370 kts | 233° |
| 2026-04-25 10:13 | 29.00638 | 126.63110 | 34059 ft | 374 kts | 233° |
| 2026-04-25 10:13 | 28.97379 | 126.58481 | 34055 ft | 374 kts | 233° |
| 2026-04-25 10:14 | 28.94034 | 126.53934 | 34061 ft | 374 kts | 232° |
| 2026-04-25 10:14 | 28.90674 | 126.49400 | 34093 ft | 372 kts | 232° |
| 2026-04-25 10:15 | 28.87340 | 126.44904 | 34049 ft | 373 kts | 232° |
| 2026-04-25 10:15 | 28.83985 | 126.40382 | 34060 ft | 373 kts | 232° |
| 2026-04-25 10:16 | 28.80624 | 126.35867 | 34062 ft | 373 kts | 232° |
| 2026-04-25 10:16 | 28.77271 | 126.31345 | 34065 ft | 373 kts | 232° |
| 2026-04-25 10:17 | 28.73907 | 126.26828 | 34064 ft | 373 kts | 232° |
| 2026-04-25 10:17 | 28.70527 | 126.22294 | 34061 ft | 376 kts | 231° |
| 2026-04-25 10:18 | 28.67135 | 126.17760 | 34063 ft | 376 kts | 231° |
| 2026-04-25 10:18 | 28.63752 | 126.13215 | 34067 ft | 376 kts | 232° |
| 2026-04-25 10:19 | 28.60465 | 126.08597 | 34070 ft | 376 kts | 233° |
| 2026-04-25 10:19 | 28.57201 | 126.03998 | 34070 ft | 376 kts | 233° |
| 2026-04-25 10:20 | 28.53925 | 125.99365 | 34068 ft | 376 kts | 233° |
| 2026-04-25 10:20 | 28.50647 | 125.94744 | 34071 ft | 376 kts | 233° |
| 2026-04-25 10:21 | 28.47355 | 125.90129 | 34071 ft | 376 kts | 233° |
| 2026-04-25 10:21 | 28.44066 | 125.85513 | 34071 ft | 376 kts | 232° |
| 2026-04-25 10:22 | 28.40776 | 125.80905 | 34074 ft | 376 kts | 233° |
| 2026-04-25 10:22 | 28.37468 | 125.76262 | 34070 ft | 380 kts | 232° |
| 2026-04-25 10:23 | 28.34157 | 125.71624 | 34083 ft | 376 kts | 233° |
| 2026-04-25 10:23 | 28.30864 | 125.67010 | 34075 ft | 376 kts | 232° |
| 2026-04-25 10:24 | 28.27567 | 125.62403 | 34078 ft | 376 kts | 232° |
| 2026-04-25 10:24 | 28.24266 | 125.57792 | 34073 ft | 376 kts | 232° |
| 2026-04-25 10:25 | 28.20954 | 125.53170 | 34055 ft | 381 kts | 232° |
| 2026-04-25 10:25 | 28.17608 | 125.48521 | 34098 ft | 378 kts | 232° |
| 2026-04-25 10:26 | 28.14292 | 125.43928 | 34080 ft | 377 kts | 232° |
| 2026-04-25 10:26 | 28.10986 | 125.39328 | 34078 ft | 377 kts | 232° |
| 2026-04-25 10:27 | 28.07675 | 125.34727 | 34080 ft | 377 kts | 232° |
| 2026-04-25 10:27 | 28.04353 | 125.30108 | 34055 ft | 381 kts | 232° |
| 2026-04-25 10:28 | 28.00991 | 125.25456 | 34076 ft | 382 kts | 232° |
| 2026-04-25 10:28 | 27.97639 | 125.20819 | 34087 ft | 379 kts | 232° |
| 2026-04-25 10:29 | 27.94303 | 125.16200 | 34081 ft | 379 kts | 232° |
| 2026-04-25 10:29 | 27.90953 | 125.11586 | 34085 ft | 380 kts | 232° |
| 2026-04-25 10:30 | 27.87605 | 125.06955 | 34053 ft | 382 kts | 232° |
| 2026-04-25 10:30 | 27.84230 | 125.02303 | 34076 ft | 383 kts | 232° |
| 2026-04-25 10:31 | 27.80846 | 124.97650 | 34096 ft | 382 kts | 232° |
| 2026-04-25 10:31 | 27.77482 | 124.93018 | 34085 ft | 382 kts | 232° |
| 2026-04-25 10:32 | 27.74110 | 124.88398 | 34084 ft | 382 kts | 232° |
| 2026-04-25 10:32 | 27.70751 | 124.83802 | 34040 ft | 382 kts | 232° |
| 2026-04-25 10:33 | 27.67343 | 124.79122 | 34075 ft | 384 kts | 232° |
| 2026-04-25 10:33 | 27.63970 | 124.74501 | 34084 ft | 384 kts | 232° |
| 2026-04-25 10:34 | 27.60576 | 124.69844 | 34092 ft | 384 kts | 232° |
| 2026-04-25 10:34 | 27.57184 | 124.65193 | 34084 ft | 384 kts | 232° |
| 2026-04-25 10:35 | 27.53788 | 124.60553 | 34082 ft | 384 kts | 232° |
| 2026-04-25 10:35 | 27.50385 | 124.55907 | 34079 ft | 384 kts | 232° |
| 2026-04-25 10:36 | 27.46983 | 124.51270 | 34082 ft | 384 kts | 232° |
| 2026-04-25 10:36 | 27.43582 | 124.46632 | 34093 ft | 385 kts | 232° |
| 2026-04-25 10:37 | 27.40164 | 124.41979 | 34096 ft | 386 kts | 232° |
| 2026-04-25 10:37 | 27.36743 | 124.37327 | 34079 ft | 386 kts | 232° |
| 2026-04-25 10:38 | 27.33323 | 124.32684 | 34078 ft | 385 kts | 232° |
| 2026-04-25 10:38 | 27.29903 | 124.28046 | 34085 ft | 385 kts | 232° |
| 2026-04-25 10:39 | 27.26488 | 124.23417 | 34079 ft | 385 kts | 232° |
| 2026-04-25 10:39 | 27.23067 | 124.18786 | 34091 ft | 386 kts | 232° |
| 2026-04-25 10:40 | 27.19631 | 124.14140 | 34081 ft | 387 kts | 232° |
| 2026-04-25 10:40 | 27.16195 | 124.09496 | 34056 ft | 385 kts | 232° |
| 2026-04-25 10:41 | 27.12784 | 124.04891 | 34080 ft | 383 kts | 232° |
| 2026-04-25 10:41 | 27.09370 | 124.00290 | 34082 ft | 383 kts | 232° |
| 2026-04-25 10:42 | 27.05939 | 123.95715 | 34081 ft | 384 kts | 231° |
| 2026-04-25 10:42 | 27.02481 | 123.91128 | 34083 ft | 387 kts | 231° |
| 2026-04-25 10:43 | 26.99013 | 123.86529 | 33721 ft | 384 kts | 231° |
| 2026-04-25 10:43 | 26.97304 | 123.84262 | 33386 ft | 385 kts | 231° |
| 2026-04-25 10:43 | 26.95572 | 123.81964 | 33120 ft | 386 kts | 231° |
| 2026-04-25 10:43 | 26.93835 | 123.79662 | 32859 ft | 388 kts | 231° |
| 2026-04-25 10:44 | 26.92091 | 123.77353 | 32610 ft | 389 kts | 231° |
| 2026-04-25 10:44 | 26.90343 | 123.75039 | 32355 ft | 390 kts | 231° |
| 2026-04-25 10:44 | 26.88590 | 123.72718 | 32105 ft | 391 kts | 232° |
| 2026-04-25 10:44 | 26.86825 | 123.70383 | 31859 ft | 392 kts | 231° |
| 2026-04-25 10:45 | 26.85057 | 123.68047 | 31631 ft | 395 kts | 231° |
| 2026-04-25 10:45 | 26.83276 | 123.65695 | 31379 ft | 397 kts | 231° |
| 2026-04-25 10:45 | 26.81487 | 123.63334 | 31153 ft | 398 kts | 231° |
| 2026-04-25 10:45 | 26.79693 | 123.60972 | 30924 ft | 399 kts | 231° |
| 2026-04-25 10:46 | 26.77898 | 123.58606 | 30682 ft | 400 kts | 232° |
| 2026-04-25 10:46 | 26.76097 | 123.56228 | 30442 ft | 400 kts | 232° |
| 2026-04-25 10:46 | 26.74294 | 123.53850 | 30213 ft | 401 kts | 232° |
| 2026-04-25 10:46 | 26.72490 | 123.51472 | 29955 ft | 402 kts | 232° |
| 2026-04-25 10:47 | 26.70680 | 123.49089 | 29682 ft | 403 kts | 232° |
| 2026-04-25 10:47 | 26.68858 | 123.46696 | 29411 ft | 404 kts | 232° |
| 2026-04-25 10:47 | 26.67038 | 123.44303 | 29149 ft | 405 kts | 232° |
| 2026-04-25 10:47 | 26.65216 | 123.41909 | 28881 ft | 405 kts | 232° |
| 2026-04-25 10:48 | 26.63385 | 123.39507 | 28620 ft | 406 kts | 232° |
| 2026-04-25 10:48 | 26.61546 | 123.37096 | 28348 ft | 408 kts | 232° |
| 2026-04-25 10:48 | 26.59700 | 123.34675 | 28080 ft | 410 kts | 232° |
| 2026-04-25 10:48 | 26.57850 | 123.32245 | 27832 ft | 411 kts | 232° |
| 2026-04-25 10:49 | 26.55994 | 123.29810 | 27573 ft | 412 kts | 232° |
| 2026-04-25 10:49 | 26.54761 | 123.28196 | 27407 ft | 413 kts | 232° |
| 2026-04-25 10:49 | 26.52264 | 123.24927 | 27075 ft | 414 kts | 232° |
| 2026-04-25 10:49 | 26.50391 | 123.22479 | 26826 ft | 415 kts | 232° |
| 2026-04-25 10:50 | 26.48519 | 123.20031 | 26585 ft | 415 kts | 232° |
| 2026-04-25 10:50 | 26.46640 | 123.17577 | 26344 ft | 416 kts | 232° |
| 2026-04-25 10:50 | 26.44754 | 123.15119 | 26106 ft | 417 kts | 232° |
| 2026-04-25 10:50 | 26.42873 | 123.12662 | 25871 ft | 417 kts | 232° |
| 2026-04-25 10:51 | 26.41006 | 123.10226 | 25615 ft | 421 kts | 232° |
| 2026-04-25 10:51 | 26.39081 | 123.07716 | 25379 ft | 422 kts | 232° |
| 2026-04-25 10:51 | 26.37166 | 123.05223 | 25141 ft | 423 kts | 232° |
| 2026-04-25 10:51 | 26.35274 | 123.02762 | 24922 ft | 423 kts | 232° |
| 2026-04-25 10:52 | 26.33356 | 123.00269 | 24687 ft | 424 kts | 232° |
| 2026-04-25 10:52 | 26.31438 | 122.97774 | 24464 ft | 423 kts | 232° |
| 2026-04-25 10:52 | 26.29525 | 122.95291 | 24238 ft | 422 kts | 232° |
| 2026-04-25 10:52 | 26.27616 | 122.92812 | 24017 ft | 421 kts | 232° |
| 2026-04-25 10:53 | 26.25713 | 122.90342 | 23796 ft | 419 kts | 233° |
| 2026-04-25 10:53 | 26.23816 | 122.87881 | 23584 ft | 417 kts | 233° |
| 2026-04-25 10:53 | 26.21926 | 122.85434 | 23287 ft | 417 kts | 233° |
| 2026-04-25 10:53 | 26.20038 | 122.82984 | 23021 ft | 417 kts | 233° |
| 2026-04-25 10:54 | 26.18148 | 122.80535 | 22768 ft | 416 kts | 233° |
| 2026-04-25 10:54 | 26.16897 | 122.78920 | 22592 ft | 416 kts | 232° |
| 2026-04-25 10:54 | 26.14374 | 122.75664 | 22246 ft | 415 kts | 233° |
| 2026-04-25 10:54 | 26.12494 | 122.73237 | 21992 ft | 414 kts | 233° |
| 2026-04-25 10:55 | 26.10618 | 122.70815 | 21740 ft | 413 kts | 233° |
| 2026-04-25 10:55 | 26.08744 | 122.68395 | 21492 ft | 412 kts | 233° |
| 2026-04-25 10:55 | 26.06873 | 122.65981 | 21244 ft | 411 kts | 233° |
| 2026-04-25 10:55 | 26.05009 | 122.63569 | 20998 ft | 411 kts | 233° |
| 2026-04-25 10:56 | 26.03148 | 122.61162 | 20738 ft | 410 kts | 233° |
| 2026-04-25 10:56 | 26.01285 | 122.58760 | 20503 ft | 410 kts | 233° |
| 2026-04-25 10:56 | 25.99424 | 122.56362 | 20263 ft | 409 kts | 233° |
| 2026-04-25 10:56 | 25.97567 | 122.53968 | 20023 ft | 409 kts | 233° |
| 2026-04-25 10:57 | 25.95711 | 122.51577 | 19790 ft | 408 kts | 233° |
| 2026-04-25 10:57 | 25.93852 | 122.49189 | 19557 ft | 408 kts | 233° |
| 2026-04-25 10:57 | 25.92627 | 122.47613 | 19396 ft | 407 kts | 233° |
| 2026-04-25 10:57 | 25.90152 | 122.44433 | 19091 ft | 407 kts | 233° |
| 2026-04-25 10:58 | 25.88927 | 122.42862 | 18940 ft | 406 kts | 233° |
| 2026-04-25 10:58 | 25.87081 | 122.40490 | 18712 ft | 406 kts | 233° |
| 2026-04-25 10:58 | 25.85234 | 122.38122 | 18486 ft | 405 kts | 233° |
| 2026-04-25 10:58 | 25.83390 | 122.35755 | 18219 ft | 406 kts | 232° |
| 2026-04-25 10:59 | 25.81537 | 122.33379 | 17975 ft | 405 kts | 232° |
| 2026-04-25 10:59 | 25.79701 | 122.31028 | 17711 ft | 403 kts | 232° |
| 2026-04-25 10:59 | 25.77870 | 122.28682 | 17457 ft | 401 kts | 232° |
| 2026-04-25 10:59 | 25.76046 | 122.26346 | 17203 ft | 400 kts | 232° |
| 2026-04-25 11:00 | 25.74227 | 122.24016 | 16950 ft | 399 kts | 232° |
| 2026-04-25 11:00 | 25.72412 | 122.21691 | 16699 ft | 398 kts | 232° |
| 2026-04-25 11:00 | 25.70599 | 122.19374 | 16450 ft | 397 kts | 232° |
| 2026-04-25 11:00 | 25.68796 | 122.17073 | 16203 ft | 395 kts | 232° |
| 2026-04-25 11:01 | 25.66994 | 122.14775 | 15952 ft | 395 kts | 232° |
| 2026-04-25 11:01 | 25.65191 | 122.12479 | 15716 ft | 394 kts | 232° |
| 2026-04-25 11:01 | 25.63420 | 122.10179 | 15452 ft | 394 kts | 233° |
| 2026-04-25 11:01 | 25.61881 | 122.07680 | 15210 ft | 392 kts | 241° |
| 2026-04-25 11:02 | 25.60772 | 122.04940 | 14974 ft | 389 kts | 252° |
| 2026-04-25 11:02 | 25.60017 | 122.02060 | 14739 ft | 388 kts | 255° |
| 2026-04-25 11:02 | 25.59312 | 121.99180 | 14506 ft | 387 kts | 255° |
| 2026-04-25 11:02 | 25.58600 | 121.96303 | 14264 ft | 387 kts | 255° |
| 2026-04-25 11:03 | 25.57878 | 121.93437 | 14030 ft | 386 kts | 254° |
| 2026-04-25 11:03 | 25.57153 | 121.90578 | 13792 ft | 385 kts | 254° |
| 2026-04-25 11:03 | 25.56430 | 121.87729 | 13536 ft | 384 kts | 254° |
| 2026-04-25 11:03 | 25.55702 | 121.84885 | 13270 ft | 383 kts | 254° |
| 2026-04-25 11:04 | 25.54986 | 121.82087 | 13019 ft | 382 kts | 254° |
| 2026-04-25 11:04 | 25.54253 | 121.79229 | 12765 ft | 381 kts | 254° |
| 2026-04-25 11:04 | 25.53541 | 121.76444 | 12515 ft | 380 kts | 254° |
| 2026-04-25 11:04 | 25.52810 | 121.73593 | 12334 ft | 380 kts | 254° |
| 2026-04-25 11:05 | 25.52099 | 121.70817 | 12182 ft | 379 kts | 254° |
| 2026-04-25 11:05 | 25.51390 | 121.68059 | 12028 ft | 363 kts | 254° |
| 2026-04-25 11:05 | 25.50719 | 121.65454 | 11889 ft | 341 kts | 254° |
| 2026-04-25 11:05 | 25.50089 | 121.62997 | 11748 ft | 322 kts | 254° |
| 2026-04-25 11:06 | 25.49493 | 121.60686 | 11600 ft | 304 kts | 253° |
| 2026-04-25 11:06 | 25.48899 | 121.58509 | 11461 ft | 287 kts | 250° |
| 2026-04-25 11:06 | 25.47994 | 121.56619 | 11325 ft | 272 kts | 236° |
| 2026-04-25 11:06 | 25.46800 | 121.55019 | 11198 ft | 271 kts | 230° |
| 2026-04-25 11:07 | 25.45549 | 121.53453 | 11078 ft | 271 kts | 230° |
| 2026-04-25 11:07 | 25.44300 | 121.51881 | 10956 ft | 271 kts | 230° |
| 2026-04-25 11:07 | 25.43062 | 121.50313 | 10838 ft | 272 kts | 231° |
| 2026-04-25 11:07 | 25.41822 | 121.48736 | 10714 ft | 272 kts | 231° |
| 2026-04-25 11:08 | 25.40581 | 121.47152 | 10599 ft | 271 kts | 231° |
| 2026-04-25 11:08 | 25.39350 | 121.45581 | 10477 ft | 270 kts | 231° |
| 2026-04-25 11:08 | 25.38117 | 121.44011 | 10366 ft | 271 kts | 231° |
| 2026-04-25 11:08 | 25.36880 | 121.42433 | 10249 ft | 270 kts | 231° |
| 2026-04-25 11:09 | 25.35653 | 121.40865 | 10128 ft | 270 kts | 231° |
| 2026-04-25 11:09 | 25.34427 | 121.39296 | 10012 ft | 269 kts | 231° |
| 2026-04-25 11:09 | 25.33203 | 121.37733 | 9896 ft | 269 kts | 231° |
| 2026-04-25 11:09 | 25.31975 | 121.36166 | 9761 ft | 269 kts | 231° |
| 2026-04-25 11:10 | 25.30752 | 121.34604 | 9647 ft | 269 kts | 231° |
| 2026-04-25 11:10 | 25.29941 | 121.33571 | 9566 ft | 269 kts | 230° |
| 2026-04-25 11:10 | 25.28306 | 121.31486 | 9385 ft | 267 kts | 230° |
| 2026-04-25 11:10 | 25.27089 | 121.29934 | 9262 ft | 267 kts | 230° |
| 2026-04-25 11:11 | 25.25877 | 121.28389 | 9141 ft | 267 kts | 230° |
| 2026-04-25 11:11 | 25.24659 | 121.26838 | 9015 ft | 266 kts | 230° |
| 2026-04-25 11:11 | 25.23448 | 121.25296 | 8895 ft | 266 kts | 230° |
| 2026-04-25 11:11 | 25.22235 | 121.23751 | 8765 ft | 268 kts | 230° |
| 2026-04-25 11:12 | 25.21025 | 121.22209 | 8644 ft | 268 kts | 230° |
| 2026-04-25 11:12 | 25.19802 | 121.20655 | 8520 ft | 268 kts | 230° |
| 2026-04-25 11:12 | 25.18564 | 121.19082 | 8393 ft | 268 kts | 230° |
| 2026-04-25 11:12 | 25.17345 | 121.17532 | 8270 ft | 267 kts | 230° |
| 2026-04-25 11:13 | 25.16132 | 121.15991 | 8151 ft | 266 kts | 230° |
| 2026-04-25 11:13 | 25.14915 | 121.14446 | 8024 ft | 266 kts | 230° |
| 2026-04-25 11:13 | 25.13701 | 121.12905 | 7902 ft | 267 kts | 230° |
| 2026-04-25 11:13 | 25.12485 | 121.11361 | 7778 ft | 266 kts | 230° |
| 2026-04-25 11:14 | 25.11272 | 121.09823 | 7651 ft | 264 kts | 230° |
| 2026-04-25 11:14 | 25.10072 | 121.08297 | 7534 ft | 264 kts | 230° |
| 2026-04-25 11:14 | 25.08870 | 121.06767 | 7401 ft | 264 kts | 230° |
| 2026-04-25 11:14 | 25.07665 | 121.05237 | 7280 ft | 265 kts | 229° |
| 2026-04-25 11:15 | 25.06456 | 121.03703 | 7157 ft | 264 kts | 229° |
| 2026-04-25 11:15 | 25.05255 | 121.02179 | 7029 ft | 264 kts | 229° |
| 2026-04-25 11:15 | 25.04065 | 121.00673 | 6921 ft | 263 kts | 229° |
| 2026-04-25 11:15 | 25.02864 | 120.99150 | 6796 ft | 264 kts | 229° |
| 2026-04-25 11:16 | 25.00472 | 120.96117 | 6252 ft | 261 kts | 229° |
| 2026-04-25 11:16 | 24.99281 | 120.94608 | 5891 ft | 261 kts | 230° |
| 2026-04-25 11:16 | 24.98091 | 120.93099 | 5535 ft | 259 kts | 230° |
| 2026-04-25 11:17 | 24.96901 | 120.91590 | 5220 ft | 260 kts | 230° |
| 2026-04-25 11:17 | 24.95712 | 120.90062 | 4909 ft | 264 kts | 230° |
| 2026-04-25 11:17 | 24.94525 | 120.88536 | 4591 ft | 263 kts | 230° |
| 2026-04-25 11:17 | 24.93319 | 120.87022 | 4270 ft | 263 kts | 229° |
| 2026-04-25 11:18 | 24.92106 | 120.85508 | 3998 ft | 266 kts | 230° |
| 2026-04-25 11:18 | 24.90707 | 120.84171 | 3920 ft | 269 kts | 209° |
| 2026-04-25 11:18 | 24.88918 | 120.83595 | 3922 ft | 271 kts | 184° |
| 2026-04-25 11:18 | 24.87064 | 120.83905 | 3939 ft | 273 kts | 159° |
| 2026-04-25 11:19 | 24.85490 | 120.85044 | 3959 ft | 272 kts | 134° |
| 2026-04-25 11:19 | 24.84487 | 120.86791 | 3964 ft | 272 kts | 109° |
| 2026-04-25 11:19 | 24.84232 | 120.88825 | 3967 ft | 270 kts | 84° |
| 2026-04-25 11:19 | 24.84749 | 120.90807 | 3970 ft | 269 kts | 61° |
| 2026-04-25 11:20 | 24.85751 | 120.92512 | 3978 ft | 257 kts | 54° |
| 2026-04-25 11:20 | 24.86735 | 120.94042 | 3978 ft | 240 kts | 54° |
| 2026-04-25 11:20 | 24.87661 | 120.95492 | 3961 ft | 223 kts | 54° |
| 2026-04-25 11:20 | 24.88504 | 120.96835 | 3937 ft | 205 kts | 56° |
| 2026-04-25 11:21 | 24.89316 | 120.98143 | 3954 ft | 207 kts | 55° |
| 2026-04-25 11:21 | 24.90114 | 120.99445 | 3953 ft | 201 kts | 56° |
| 2026-04-25 11:21 | 24.90893 | 121.00729 | 3975 ft | 201 kts | 56° |
| 2026-04-25 11:21 | 24.91711 | 121.01975 | 3975 ft | 202 kts | 48° |
| 2026-04-25 11:22 | 24.92652 | 121.03114 | 3980 ft | 202 kts | 47° |
| 2026-04-25 11:22 | 24.93291 | 121.03890 | 3982 ft | 203 kts | 47° |
| 2026-04-25 11:22 | 24.94525 | 121.05422 | 3985 ft | 203 kts | 48° |
| 2026-04-25 11:22 | 24.95450 | 121.06588 | 3988 ft | 201 kts | 48° |
| 2026-04-25 11:23 | 24.96368 | 121.07748 | 3988 ft | 202 kts | 48° |
| 2026-04-25 11:23 | 24.97304 | 121.08926 | 3702 ft | 209 kts | 47° |
| 2026-04-25 11:23 | 24.98304 | 121.10165 | 3097 ft | 219 kts | 47° |
| 2026-04-25 11:23 | 24.99302 | 121.11380 | 2691 ft | 209 kts | 47° |
| 2026-04-25 11:24 | 25.00243 | 121.12552 | 2345 ft | 197 kts | 49° |
| 2026-04-25 11:24 | 25.01055 | 121.13617 | 2360 ft | 165 kts | 50° |
| 2026-04-25 11:24 | 25.01761 | 121.14519 | 2223 ft | 146 kts | 48° |
| 2026-04-25 11:24 | 25.02357 | 121.15279 | 1994 ft | 126 kts | 50° |
| 2026-04-25 11:25 | 25.02924 | 121.16007 | 1696 ft | 123 kts | 49° |
| 2026-04-25 11:25 | 25.03492 | 121.16693 | 1421 ft | 119 kts | 49° |
| 2026-04-25 11:25 | 25.04040 | 121.17396 | 1159 ft | 124 kts | 50° |
| 2026-04-25 11:25 | 25.04598 | 121.18108 | 1069 ft | 122 kts | 49° |
| 2026-04-25 11:26 | 25.05158 | 121.18820 | 912 ft | 124 kts | 50° |
| 2026-04-25 11:26 | 25.05703 | 121.19540 | 756 ft | 122 kts | 51° |
| 2026-04-25 11:26 | 25.06244 | 121.20252 | 492 ft | 120 kts | 52° |
| 2026-04-25 11:26 | 25.06802 | 121.20954 | 350 ft | 122 kts | 51° |
| 2026-04-25 11:27 | 25.07355 | 121.21673 | 140 ft | 123 kts | 52° |
| 2026-04-25 11:27 | 25.07877 | 121.22345 | 109 ft | 103 kts | 50° |
| 2026-04-25 11:27 | 25.08195 | 121.22749 | 105 ft | 49 kts | 47° |
| 2026-04-25 11:27 | 25.08337 | 121.22941 | 106 ft | 43 kts | 48° |
| 2026-04-25 11:28 | 25.08442 | 121.23180 | 106 ft | 22 kts | 79° |
| 2026-04-25 11:28 | 25.08462 | 121.23304 | 106 ft | 0 kts | 80° |
| 2026-04-25 11:28 | 25.08463 | 121.23311 | 106 ft | 3 kts | 79° |
| 2026-04-25 11:28 | 25.08469 | 121.23346 | 106 ft | 6 kts | 79° |
| 2026-04-25 11:29 | 25.08479 | 121.23404 | 106 ft | 9 kts | 79° |
| 2026-04-25 11:29 | 25.08469 | 121.23470 | 106 ft | 11 kts | 155° |
| 2026-04-25 11:29 | 25.08433 | 121.23495 | 106 ft | 7 kts | 158° |
| 2026-04-25 11:29 | 25.08377 | 121.23473 | 106 ft | 10 kts | 226° |
| 2026-04-25 11:30 | 25.08326 | 121.23407 | 105 ft | 13 kts | 230° |
| 2026-04-25 11:30 | 25.08264 | 121.23327 | 106 ft | 15 kts | 229° |
| 2026-04-25 11:30 | 25.08199 | 121.23244 | 106 ft | 2 kts | 229° |
| 2026-04-25 11:30 | 25.08181 | 121.23221 | 106 ft | 6 kts | 229° |
| 2026-04-25 11:31 | 25.08149 | 121.23179 | 106 ft | 9 kts | 230° |
| 2026-04-25 11:31 | 25.08104 | 121.23121 | 105 ft | 11 kts | 229° |
| 2026-04-25 11:31 | 25.08047 | 121.23049 | 106 ft | 14 kts | 229° |
| 2026-04-25 11:31 | 25.08001 | 121.22991 | 105 ft | 0 kts | 222° |
| 2026-04-25 11:32 | 25.07991 | 121.22986 | 106 ft | 3 kts | 199° |
| 2026-04-25 11:32 | 25.07961 | 121.22994 | 106 ft | 6 kts | 146° |
| 2026-04-25 11:32 | 25.07948 | 121.23007 | 106 ft | 2 kts | 151° |
| 2026-04-25 11:32 | 25.07931 | 121.23019 | 106 ft | 4 kts | 147° |
| 2026-04-25 11:33 | 25.07919 | 121.23032 | 106 ft | 0 kts | 136° |
| 2026-04-25 11:33 | 25.07912 | 121.23038 | 105 ft | 2 kts | 140° |
| 2026-04-25 11:33 | 25.07905 | 121.23045 | 106 ft | 1 kts | 142° |
| 2026-04-25 11:33 | 25.07899 | 121.23050 | 105 ft | 0 kts | 141° |
| 2026-04-25 11:34 | 25.07896 | 121.23052 | 105 ft | 0 kts | 140° |